Terminal Aerodrome Forecast
Issued by NWS Cleveland, OH

Home | Current Version | Previous Version | Graphics & Text | Print | Product List | Glossary On
Versions: 1 2 3 4 5 6 7 8 9 10 11 12 13 14 15 16 17 18
638
FTUS41 KCLE 180540
TAFTOL
TAF
KTOL 180540Z 1806/1906 28004KT P6SM OVC035
     FM180900 VRB05KT P6SM SCT035
     FM181400 10006KT P6SM BKN030
     FM182200 07009KT P6SM -RA OVC028
     FM190000 06009KT 5SM -RA OVC008
     FM190400 35012G20KT 4SM -RASN OVC007=

USA.gov is the U.S. government's official web portal to all federal, state and local government web resources and services.